Time;durP1;ratioP1;P1;durP2;ratioP2;P2;SDS_P1;SDS_P2;PMS_P1;PMS_P2;Temp;Humidity;BMP_temperature;BMP_pressure;BME280_temperature;BME280_humidity;BME280_pressure;Samples;Min_cycle;Max_cycle;Signal;HPM_P1;HPM_P2
2023/03/10 20:42:06;;;;;;;47.40;31.13;;;;;;;;;;5066314;27;21143;-78
2023/03/10 20:44:36;;;;;;;1.73;1.20;;;;;;;;;;5049926;28;20505;-77
2023/03/10 20:47:03;;;;;;;5.00;4.47;;;;;;;;;;5048899;28;21021;-78
2023/03/10 20:49:30;;;;;;;5.70;4.30;;;;;;;;;;5049646;28;20443;-83
2023/03/10 20:51:57;;;;;;;4.57;1.53;;;;;;;;;;5049895;28;20477;-80
2023/03/10 20:54:24;;;;;;;4.43;1.40;;;;;;;;;;5049425;28;21143;-81
2023/03/10 20:56:52;;;;;;;3.70;3.27;;;;;;;;;;5049788;28;20454;-81
2023/03/10 20:59:20;;;;;;;2.63;2.30;;;;;;;;;;5049540;28;20453;-81
2023/03/10 21:01:47;;;;;;;1.30;0.90;;;;;;;;;;5049550;28;20854;-78
2023/03/10 21:04:14;;;;;;;2.93;2.10;;;;;;;;;;5048320;28;20645;-79
2023/03/10 21:06:41;;;;;;;2.37;1.43;;;;;;;;;;5049668;28;20453;-78
2023/03/10 21:09:08;;;;;;;8.10;7.30;;;;;;;;;;5049461;28;20973;-81
2023/03/10 21:11:36;;;;;;;0.57;0.40;;;;;;;;;;5049434;28;20458;-80
2023/03/10 21:14:03;;;;;;;1.03;0.97;;;;;;;;;;5049514;28;20446;-78
2023/03/10 21:16:31;;;;;;;3.67;1.23;;;2.90;99.90;;;;;;5048891;28;20438;-79
2023/03/10 21:18:58;;;;;;;1.10;0.73;;;;;;;;;;5046762;28;20458;-79
2023/03/10 21:21:25;;;;;;;1.00;0.63;;;;;;;;;;5049298;28;20499;-80
2023/03/10 21:23:52;;;;;;;1.70;0.87;;;;;;;;;;5049095;28;20451;-80
2023/03/10 21:26:21;;;;;;;0.73;0.70;;;3.00;99.90;;;;;;5049083;28;20529;-79
2023/03/10 21:28:48;;;;;;;1.80;0.80;;;3.00;99.90;;;;;;5048998;28;20508;-80
2023/03/10 21:31:16;;;;;;;0.70;0.67;;;;;;;;;;5048501;28;20447;-79
2023/03/10 21:33:44;;;;;;;0.77;0.50;;;;;;;;;;5048021;28;20451;-81
2023/03/10 21:36:13;;;;;;;1.80;1.33;;;3.00;99.90;;;;;;5048446;28;21005;-79
2023/03/10 21:38:41;;;;;;;1.90;1.23;;;;;;;;;;5049168;28;20446;-80
2023/03/10 21:41:08;;;;;;;1.17;1.00;;;;;;;;;;5029098;28;20502;-80
2023/03/10 21:43:35;;;;;;;1.27;0.97;;;;;;;;;;5029040;28;20461;-81
2023/03/10 21:46:03;;;;;;;0.70;0.57;;;;;;;;;;5029229;28;20447;-81
2023/03/10 21:48:30;;;;;;;0.50;0.40;;;;;;;;;;5028085;28;20479;-81
2023/03/10 21:50:58;;;;;;;0.83;0.63;;;;;;;;;;5028827;28;20478;-81
2023/03/10 21:53:25;;;;;;;0.83;0.67;;;;;;;;;;5016254;28;20452;-82
2023/03/10 21:55:53;;;;;;;1.07;0.83;;;;;;;;;;5015824;28;20455;-80
2023/03/10 21:58:22;;;;;;;1.17;1.07;;;;;;;;;;5015914;28;20815;-83
2023/03/10 22:00:49;;;;;;;1.00;0.90;;;;;;;;;;5015710;28;20546;-81
2023/03/10 22:03:16;;;;;;;1.07;0.50;;;;;;;;;;5014771;28;20449;-84
2023/03/10 22:05:43;;;;;;;1.37;0.73;;;;;;;;;;5014805;28;20456;-81
2023/03/10 22:08:11;;;;;;;0.57;0.50;;;;;;;;;;5015687;28;20460;-83
2023/03/10 22:10:38;;;;;;;1.83;1.00;;;;;;;;;;5015608;28;20822;-85
2023/03/10 22:13:06;;;;;;;2.27;1.80;;;;;;;;;;5015701;28;20475;-81
2023/03/10 22:15:33;;;;;;;8.60;4.03;;;;;;;;;;5014857;28;20963;-80
2023/03/10 22:18:00;;;;;;;1.13;0.70;;;;;;;;;;5014174;28;20460;-81
2023/03/10 22:20:28;;;;;;;5.33;2.07;;;;;;;;;;5015199;28;20480;-82
2023/03/10 22:22:56;;;;;;;1.57;1.23;;;;;;;;;;5015267;28;20453;-81
2023/03/10 22:25:24;;;;;;;5.10;1.63;;;;;;;;;;5015262;28;20892;-81
2023/03/10 22:27:52;;;;;;;1.60;1.07;;;;;;;;;;5015190;28;20543;-82
2023/03/10 22:30:20;;;;;;;2.00;1.27;;;;;;;;;;5014694;28;20451;-81
2023/03/10 22:32:47;;;;;;;2.70;0.90;;;;;;;;;;5013963;28;20444;-83
2023/03/10 22:35:14;;;;;;;2.07;1.40;;;;;;;;;;5015072;28;20453;-82
2023/03/10 22:37:41;;;;;;;0.87;0.70;;;2.60;99.90;;;;;;5015064;28;20456;-81
2023/03/10 22:40:10;;;;;;;2.27;1.40;;;;;;;;;;5014453;28;20507;-79
2023/03/10 22:42:39;;;;;;;1.27;1.03;;;;;;;;;;5014196;28;20488;-84
2023/03/10 22:45:07;;;;;;;2.10;1.77;;;;;;;;;;5014016;28;20451;-82
2023/03/10 22:47:34;;;;;;;1.73;0.67;;;;;;;;;;5013320;28;20449;-81
2023/03/10 22:50:02;;;;;;;2.60;1.67;;;;;;;;;;5014761;28;20423;-81
2023/03/10 22:52:29;;;;;;;0.60;0.50;;;;;;;;;;5014623;28;20886;-82
2023/03/10 22:54:56;;;;;;;1.27;1.03;;;;;;;;;;5014684;28;20444;-79
2023/03/10 22:57:23;;;;;;;0.70;0.53;;;;;;;;;;5014715;28;20449;-83
2023/03/10 22:59:52;;;;;;;1.33;1.23;;;;;;;;;;5014210;28;20792;-82
2023/03/10 23:02:19;;;;;;;1.60;1.50;;;;;;;;;;5013345;28;20499;-82
2023/03/10 23:04:46;;;;;;;2.40;0.60;;;;;;;;;;5013731;28;20460;-81
2023/03/10 23:07:13;;;;;;;2.77;1.10;;;;;;;;;;5014307;28;20456;-81
2023/03/10 23:09:40;;;;;;;1.00;0.70;;;;;;;;;;5014404;28;20447;-81
2023/03/10 23:12:07;;;;;;;2.13;1.60;;;;;;;;;;5014413;28;20459;-81
2023/03/10 23:14:34;;;;;;;0.73;0.73;;;;;;;;;;5014012;28;20448;-82
2023/03/10 23:17:03;;;;;;;4.70;2.20;;;;;;;;;;5013986;28;20451;-80
2023/03/10 23:19:30;;;;;;;1.83;0.90;;;;;;;;;;5014134;28;20447;-80
2023/03/10 23:21:57;;;;;;;0.50;0.50;;;;;;;;;;5014357;28;20503;-81
2023/03/10 23:24:24;;;;;;;0.50;0.30;;;;;;;;;;5014222;28;20455;-81
2023/03/10 23:26:51;;;;;;;0.80;0.50;;;;;;;;;;5013344;28;20453;-76
2023/03/10 23:29:18;;;;;;;1.40;0.90;;;;;;;;;;5014063;28;20448;-80
2023/03/10 23:31:45;;;;;;;2.70;1.50;;;;;;;;;;5014231;28;20820;-79
2023/03/10 23:34:13;;;;;;;1.70;1.60;;;2.20;99.90;;;;;;5011971;28;20951;-80
2023/03/10 23:36:40;;;;;;;1.20;0.63;;;;;;;;;;5014130;28;20444;-80
2023/03/10 23:39:10;;;;;;;2.83;2.10;;;;;;;;;;5014086;28;20567;-78
2023/03/10 23:41:37;;;;;;;1.60;1.20;;;;;;;;;;5013525;28;20517;-81
2023/03/10 23:44:04;;;;;;;1.23;0.47;;;;;;;;;;5014065;28;20460;-80
2023/03/10 23:46:31;;;;;;;4.80;1.60;;;;;;;;;;5014281;28;20448;-81
2023/03/10 23:48:58;;;;;;;1.00;0.80;;;;;;;;;;5012499;28;20464;-80
2023/03/10 23:51:27;;;;;;;1.33;0.93;;;;;;;;;;5013895;28;20455;-83
2023/03/10 23:53:54;;;;;;;2.37;1.00;;;;;;;;;;5013977;28;20448;-83
2023/03/10 23:56:21;;;;;;;0.67;0.50;;;;;;;;;;5013765;28;20480;-80
2023/03/10 23:58:48;;;;;;;0.60;0.53;;;;;;;;;;5013953;28;20451;-81
